Time;durP1;ratioP1;P1;durP2;ratioP2;P2;SDS_P1;SDS_P2;PMS_P1;PMS_P2;Temp;Humidity;BMP_temperature;BMP_pressure;BME280_temperature;BME280_humidity;BME280_pressure;Samples;Min_cycle;Max_cycle;Signal;HPM_P1;HPM_P2
2022/11/30 00:00:38;;;;;;;0.20;0.20;;;5.80;99.90;;;;;;5033405;28;20629;-68
2022/11/30 00:03:07;;;;;;;0.20;0.20;;;5.80;99.90;;;;;;5025826;28;21195;-68
2022/11/30 00:05:34;;;;;;;0.20;0.20;;;5.80;99.90;;;;;;5026566;28;20649;-69
2022/11/30 00:08:01;;;;;;;0.10;0.10;;;5.90;99.90;;;;;;5028289;28;21199;-69
2022/11/30 00:10:28;;;;;;;0.17;0.17;;;5.90;99.90;;;;;;5029890;28;20607;-69
2022/11/30 00:12:56;;;;;;;0.10;0.10;;;5.90;99.90;;;;;;5037523;28;21192;-69
2022/11/30 00:15:24;;;;;;;0.13;0.13;;;5.90;99.90;;;;;;5032046;28;20634;-68
2022/11/30 00:17:56;;;;;;;0.10;0.10;;;5.90;99.90;;;;;;5027883;28;20627;-69
2022/11/30 00:20:23;;;;;;;0.20;0.20;;;6.00;99.90;;;;;;5029354;28;20598;-69
2022/11/30 00:22:51;;;;;;;0.10;0.10;;;6.00;99.90;;;;;;5027797;28;20749;-68
2022/11/30 00:25:18;;;;;;;0.10;0.10;;;6.00;99.90;;;;;;5036935;28;20619;-69
2022/11/30 00:27:45;;;;;;;0.10;0.10;;;6.00;99.90;;;;;;5027547;28;20626;-69
2022/11/30 00:30:14;;;;;;;0.10;0.10;;;6.00;99.90;;;;;;5029558;28;20611;-69
2022/11/30 00:32:42;;;;;;;0.10;0.10;;;6.00;99.90;;;;;;5028280;28;20639;-69
2022/11/30 00:35:09;;;;;;;0.10;0.10;;;6.10;99.90;;;;;;5032583;28;20684;-69
2022/11/30 00:37:36;;;;;;;0.10;0.10;;;6.10;99.90;;;;;;5028331;28;20665;-68
2022/11/30 00:40:04;;;;;;;0.10;0.10;;;6.10;99.90;;;;;;5041857;28;20685;-68
2022/11/30 00:42:31;;;;;;;0.10;0.10;;;6.10;99.90;;;;;;5026853;28;20642;-68
2022/11/30 00:44:58;;;;;;;0.10;0.10;;;6.10;99.90;;;;;;5030131;28;20614;-69
2022/11/30 00:47:26;;;;;;;0.10;0.10;;;6.10;99.90;;;;;;5027431;28;20662;-68
2022/11/30 00:49:54;;;;;;;0.10;0.10;;;6.10;99.90;;;;;;5037200;28;20638;-69
2022/11/30 00:52:21;;;;;;;0.10;0.10;;;6.10;99.90;;;;;;5024597;28;20642;-69
2022/11/30 00:54:48;;;;;;;0.20;0.20;;;6.10;99.90;;;;;;5036897;28;20650;-68
2022/11/30 00:57:15;;;;;;;0.20;0.20;;;6.10;99.90;;;;;;5040696;28;20654;-68
2022/11/30 00:59:42;;;;;;;0.17;0.17;;;6.10;99.90;;;;;;5029737;28;20637;-68
2022/11/30 01:02:09;;;;;;;0.30;0.30;;;6.10;99.90;;;;;;5029458;28;21229;-68
2022/11/30 01:04:36;;;;;;;0.17;0.17;;;6.10;99.90;;;;;;5028418;28;21175;-68
2022/11/30 01:07:04;;;;;;;0.20;0.20;;;6.10;99.90;;;;;;5027541;28;20662;-70
2022/11/30 01:09:32;;;;;;;0.10;0.10;;;6.10;99.90;;;;;;5027692;28;20692;-68
2022/11/30 01:11:59;;;;;;;0.10;0.10;;;6.10;99.90;;;;;;5036444;28;20615;-68
2022/11/30 01:14:26;;;;;;;0.20;0.20;;;6.10;99.90;;;;;;5034457;28;20644;-68
2022/11/30 01:16:53;;;;;;;0.20;0.20;;;6.10;99.90;;;;;;5026554;28;20658;-69
2022/11/30 01:19:20;;;;;;;0.30;0.30;;;6.10;99.90;;;;;;5028280;28;20886;-68
2022/11/30 01:21:47;;;;;;;0.30;0.30;;;6.10;99.90;;;;;;5028993;28;20615;-69
2022/11/30 01:24:16;;;;;;;0.20;0.20;;;6.10;99.90;;;;;;5029026;28;20650;-68
2022/11/30 01:26:43;;;;;;;0.20;0.20;;;6.00;99.90;;;;;;5030006;28;20741;-68
2022/11/30 01:29:10;;;;;;;0.20;0.20;;;6.10;99.90;;;;;;5026512;28;20628;-68
2022/11/30 01:31:37;;;;;;;0.30;0.30;;;6.10;99.90;;;;;;5027742;28;20637;-68
2022/11/30 01:34:04;;;;;;;0.20;0.20;;;6.10;99.90;;;;;;5031875;28;20672;-68
2022/11/30 01:36:32;;;;;;;0.30;0.30;;;6.10;99.90;;;;;;5028537;28;20646;-69
2022/11/30 01:38:59;;;;;;;0.20;0.20;;;6.00;99.90;;;;;;5039817;28;20634;-69
2022/11/30 01:41:32;;;;;;;0.20;0.20;;;6.00;99.90;;;;;;5028768;28;20606;-69
2022/11/30 01:44:40;;;;;;;0.30;0.30;;;6.00;99.90;;;;;;5038495;28;20686;-69
2022/11/30 01:47:11;;;;;;;0.30;0.30;;;6.10;99.90;;;;;;5031602;28;21123;-69
2022/11/30 01:49:41;;;;;;;0.30;0.30;;;6.00;99.90;;;;;;5028251;28;20610;-68
2022/11/30 01:52:12;;;;;;;0.10;0.10;;;6.00;99.90;;;;;;5036314;28;20667;-69
2022/11/30 01:54:44;;;;;;;0.30;0.30;;;6.10;99.90;;;;;;5027406;28;21023;-68
2022/11/30 01:57:19;;;;;;;0.20;0.20;;;6.00;99.90;;;;;;5027822;28;20639;-68
2022/11/30 01:59:48;;;;;;;0.20;0.20;;;6.00;99.90;;;;;;5028042;28;20616;-68
2022/11/30 02:02:16;;;;;;;0.20;0.20;;;6.00;99.90;;;;;;5028114;28;20626;-69
2022/11/30 02:04:43;;;;;;;0.20;0.20;;;6.00;99.90;;;;;;5033276;28;20663;-69
2022/11/30 02:07:10;;;;;;;0.10;0.10;;;6.00;99.90;;;;;;5042518;28;20670;-69
2022/11/30 02:09:44;;;;;;;0.27;0.27;;;6.00;99.90;;;;;;5027922;28;20730;-69
2022/11/30 02:12:22;;;;;;;0.30;0.30;;;6.00;99.90;;;;;;5042945;28;20626;-69
2022/11/30 02:14:54;;;;;;;0.27;0.27;;;6.00;99.90;;;;;;5030751;28;20675;-69
2022/11/30 02:17:30;;;;;;;0.20;0.20;;;6.00;99.90;;;;;;5035794;28;20987;-69
2022/11/30 02:20:27;;;;;;;0.10;0.10;;;6.10;99.90;;;;;;5042200;28;20633;-69
2022/11/30 02:23:10;;;;;;;0.10;0.10;;;6.00;99.90;;;;;;5021971;28;21021;-69
2022/11/30 02:25:45;;;;;;;0.17;0.17;;;6.00;99.90;;;;;;5036307;28;20725;-68
2022/11/30 02:28:42;;;;;;;0.20;0.20;;;6.00;99.90;;;;;;5043205;28;20626;-69
2022/11/30 02:31:14;;;;;;;0.20;0.20;;;6.00;99.90;;;;;;5025865;28;21162;-68
2022/11/30 02:33:43;;;;;;;0.20;0.20;;;6.00;99.90;;;;;;5041909;28;20693;-68
2022/11/30 02:36:11;;;;;;;0.20;0.20;;;6.00;99.90;;;;;;5028045;28;20693;-68
2022/11/30 02:38:39;;;;;;;0.10;0.10;;;6.00;99.90;;;;;;5027809;28;20602;-70
2022/11/30 02:41:06;;;;;;;0.20;0.20;;;6.00;99.90;;;;;;5039485;28;20638;-68
2022/11/30 02:43:35;;;;;;;0.10;0.10;;;6.00;99.90;;;;;;5027456;28;20665;-68
2022/11/30 02:46:10;;;;;;;0.10;0.10;;;6.00;99.90;;;;;;5025669;28;20666;-69
2022/11/30 02:48:44;;;;;;;0.10;0.10;;;6.00;99.90;;;;;;5027361;28;20606;-68
2022/11/30 02:51:14;;;;;;;0.10;0.10;;;6.10;99.90;;;;;;5026892;28;20615;-69
2022/11/30 02:53:42;;;;;;;0.20;0.20;;;6.10;99.90;;;;;;5027373;28;20607;-68
2022/11/30 02:56:09;;;;;;;0.10;0.10;;;6.10;99.90;;;;;;5041352;28;20642;-69
2022/11/30 02:58:36;;;;;;;0.10;0.10;;;6.10;99.90;;;;;;5041834;28;20733;-68
2022/11/30 03:01:04;;;;;;;0.20;0.20;;;6.10;99.90;;;;;;5027475;28;20688;-68
2022/11/30 03:03:31;;;;;;;0.20;0.20;;;6.10;99.90;;;;;;5025705;28;20658;-69
2022/11/30 03:05:59;;;;;;;0.20;0.20;;;6.10;99.90;;;;;;5037387;28;20662;-68
2022/11/30 03:08:27;;;;;;;0.20;0.20;;;6.10;99.90;;;;;;5025520;28;20626;-69
2022/11/30 03:10:54;;;;;;;0.10;0.10;;;6.00;99.90;;;;;;5036552;28;20623;-68
2022/11/30 03:13:21;;;;;;;0.13;0.13;;;6.00;99.90;;;;;;5027413;28;20672;-69
2022/11/30 03:15:48;;;;;;;0.20;0.20;;;6.00;99.90;;;;;;5029556;28;20689;-68
2022/11/30 03:18:16;;;;;;;0.10;0.10;;;6.00;99.90;;;;;;5041623;28;20676;-70
2022/11/30 03:20:43;;;;;;;0.10;0.10;;;6.00;99.90;;;;;;5035519;28;20623;-69
2022/11/30 03:23:10;;;;;;;0.10;0.10;;;6.00;99.90;;;;;;5036563;28;20681;-68
2022/11/30 03:25:37;;;;;;;0.10;0.10;;;6.00;99.90;;;;;;5023342;28;20666;-68
2022/11/30 03:28:05;;;;;;;0.10;0.10;;;6.00;99.90;;;;;;5041318;28;20641;-69
2022/11/30 03:30:32;;;;;;;0.10;0.10;;;6.00;99.90;;;;;;5024796;28;20682;-68
2022/11/30 03:32:59;;;;;;;0.10;0.10;;;6.00;99.90;;;;;;5023236;28;20637;-67
2022/11/30 03:35:28;;;;;;;0.10;0.10;;;6.00;99.90;;;;;;5026382;28;20621;-68
2022/11/30 03:37:55;;;;;;;0.10;0.10;;;6.00;99.90;;;;;;5024655;28;20627;-68
2022/11/30 03:40:22;;;;;;;0.10;0.10;;;5.90;99.90;;;;;;5039593;28;20686;-67
2022/11/30 03:42:49;;;;;;;0.10;0.10;;;6.00;99.90;;;;;;5029550;28;20642;-68
2022/11/30 03:45:16;;;;;;;0.10;0.10;;;5.90;99.90;;;;;;5041818;28;20681;-71
2022/11/30 03:47:43;;;;;;;0.10;0.10;;;6.00;99.90;;;;;;5035545;28;20618;-70
2022/11/30 03:50:11;;;;;;;0.10;0.10;;;6.00;99.90;;;;;;5037102;28;20718;-71
2022/11/30 03:52:39;;;;;;;0.10;0.10;;;6.00;99.90;;;;;;5032985;28;20618;-70
2022/11/30 03:55:08;;;;;;;0.10;0.10;;;6.00;99.90;;;;;;5026902;28;20617;-71
2022/11/30 03:57:35;;;;;;;0.10;0.10;;;5.90;99.90;;;;;;5025916;28;21119;-70
2022/11/30 04:00:03;;;;;;;0.10;0.10;;;5.90;99.90;;;;;;5031814;28;20727;-70
2022/11/30 04:02:38;;;;;;;0.10;0.10;;;5.90;99.90;;;;;;5024376;28;20717;-68
2022/11/30 04:05:06;;;;;;;0.10;0.10;;;5.90;99.90;;;;;;5038446;28;20651;-70
2022/11/30 04:07:33;;;;;;;0.10;0.10;;;5.90;99.90;;;;;;5038585;28;20647;-67
2022/11/30 04:10:02;;;;;;;0.03;0.03;;;5.90;99.90;;;;;;5037235;28;20754;-70
2022/11/30 04:12:29;;;;;;;0.10;0.10;;;5.90;99.90;;;;;;5028676;28;20618;-69
2022/11/30 04:14:56;;;;;;;0.10;0.10;;;5.90;99.90;;;;;;5026853;28;20610;-69
2022/11/30 04:17:23;;;;;;;0.10;0.10;;;5.90;99.90;;;;;;5026067;28;20646;-69
2022/11/30 04:19:50;;;;;;;0.10;0.10;;;5.90;99.90;;;;;;5027981;28;20674;-70
2022/11/30 04:22:18;;;;;;;0.10;0.10;;;6.00;99.90;;;;;;5021413;28;20613;-68
2022/11/30 04:24:45;;;;;;;0.10;0.10;;;6.00;99.90;;;;;;5031338;28;20659;-70
2022/11/30 04:27:13;;;;;;;0.10;0.10;;;6.00;99.90;;;;;;5025797;28;20642;-69
2022/11/30 04:29:40;;;;;;;0.00;0.00;;;5.90;99.90;;;;;;5026086;28;20614;-68
2022/11/30 04:32:08;;;;;;;0.10;0.10;;;6.00;99.90;;;;;;5040396;28;20608;-70
2022/11/30 04:34:35;;;;;;;0.10;0.10;;;6.00;99.90;;;;;;5025846;28;20606;-70
2022/11/30 04:37:02;;;;;;;0.10;0.10;;;6.00;99.90;;;;;;5038473;28;20662;-70
2022/11/30 04:39:29;;;;;;;0.10;0.10;;;6.00;99.90;;;;;;5025526;28;20978;-69
2022/11/30 04:41:56;;;;;;;0.10;0.10;;;6.00;99.90;;;;;;5038630;28;20711;-68
2022/11/30 04:44:24;;;;;;;0.10;0.10;;;6.00;99.90;;;;;;5021206;28;20651;-68
2022/11/30 04:46:52;;;;;;;0.10;0.10;;;6.00;99.90;;;;;;5025828;28;20646;-69
2022/11/30 04:49:18;;;;;;;0.10;0.10;;;6.00;99.90;;;;;;5022294;28;20617;-69
2022/11/30 04:51:46;;;;;;;0.10;0.10;;;6.00;99.90;;;;;;5025920;28;20630;-69
2022/11/30 04:54:13;;;;;;;0.10;0.10;;;6.00;99.90;;;;;;5042701;28;20712;-70
2022/11/30 04:56:40;;;;;;;0.10;0.10;;;6.00;99.90;;;;;;5033055;28;20815;-69
2022/11/30 04:59:07;;;;;;;0.10;0.10;;;5.90;99.90;;;;;;5039603;28;20236;-69
2022/11/30 05:01:36;;;;;;;0.10;0.10;;;5.90;99.90;;;;;;5030929;28;20645;-68
2022/11/30 05:04:03;;;;;;;0.00;0.00;;;5.90;99.90;;;;;;5041300;28;20758;-69
2022/11/30 05:06:30;;;;;;;0.10;0.10;;;5.90;99.90;;;;;;5029222;28;20653;-68
2022/11/30 05:08:58;;;;;;;0.10;0.10;;;5.90;99.90;;;;;;5030085;28;20613;-68
2022/11/30 05:11:25;;;;;;;0.10;0.10;;;5.90;99.90;;;;;;5022553;28;20662;-68
2022/11/30 05:13:53;;;;;;;0.10;0.10;;;5.90;99.90;;;;;;5026397;28;20638;-69
2022/11/30 05:16:20;;;;;;;0.10;0.10;;;5.90;99.90;;;;;;5040548;28;20671;-68
2022/11/30 05:18:49;;;;;;;0.10;0.10;;;5.90;99.90;;;;;;5031142;28;20630;-68
2022/11/30 05:21:16;;;;;;;0.10;0.10;;;5.90;99.90;;;;;;5038833;28;20626;-69
2022/11/30 05:23:45;;;;;;;0.10;0.10;;;5.90;99.90;;;;;;5028433;28;20603;-68
2022/11/30 05:26:13;;;;;;;0.10;0.10;;;5.90;99.90;;;;;;5028458;28;20634;-72
2022/11/30 05:28:40;;;;;;;0.10;0.10;;;5.90;99.90;;;;;;5029174;28;20610;-72
2022/11/30 05:31:07;;;;;;;0.10;0.10;;;5.90;99.90;;;;;;5037737;28;20995;-69
2022/11/30 05:33:34;;;;;;;0.10;0.10;;;5.90;99.90;;;;;;5029419;28;20634;-69
2022/11/30 05:36:03;;;;;;;0.07;0.07;;;5.90;99.90;;;;;;5028348;28;20642;-70
2022/11/30 05:38:30;;;;;;;0.10;0.10;;;5.90;99.90;;;;;;5028681;28;20606;-69
2022/11/30 05:41:00;;;;;;;0.10;0.10;;;5.90;99.90;;;;;;5025079;28;20645;-68
2022/11/30 05:43:28;;;;;;;0.10;0.10;;;5.90;99.90;;;;;;5028327;28;20641;-69
2022/11/30 05:45:59;;;;;;;0.10;0.10;;;5.90;99.90;;;;;;5038217;28;21281;-70
2022/11/30 05:48:26;;;;;;;0.00;0.00;;;4.70;99.90;;;;;;5025885;28;20771;-70
2022/11/30 05:50:54;;;;;;;0.10;0.10;;;6.00;99.90;;;;;;5045487;28;20202;-70
2022/11/30 05:53:22;;;;;;;0.00;0.00;;;5.90;99.90;;;;;;5028066;28;20645;-69
2022/11/30 05:55:49;;;;;;;0.00;0.00;;;5.90;99.90;;;;;;5030030;28;20764;-69
2022/11/30 05:58:16;;;;;;;0.10;0.10;;;5.90;99.90;;;;;;5028180;28;20670;-70
2022/11/30 06:00:43;;;;;;;0.10;0.10;;;5.90;99.90;;;;;;5026617;28;20692;-69
2022/11/30 06:03:11;;;;;;;0.10;0.10;;;5.90;99.90;;;;;;5030250;28;20646;-70
2022/11/30 06:05:38;;;;;;;0.00;0.00;;;5.90;99.90;;;;;;5027046;28;20769;-70
2022/11/30 06:08:05;;;;;;;0.10;0.10;;;5.90;99.90;;;;;;5038096;28;20286;-70
2022/11/30 06:10:35;;;;;;;0.00;0.00;;;5.90;99.90;;;;;;5026528;28;20645;-70
2022/11/30 06:13:06;;;;;;;0.00;0.00;;;5.90;99.90;;;;;;5028047;28;20617;-70
2022/11/30 06:15:34;;;;;;;0.10;0.10;;;5.90;99.90;;;;;;5039777;28;20651;-70
2022/11/30 06:18:01;;;;;;;0.10;0.10;;;5.90;99.90;;;;;;5038506;28;20634;-71
2022/11/30 06:20:28;;;;;;;0.10;0.10;;;5.90;99.90;;;;;;5026950;28;20634;-70
2022/11/30 06:22:56;;;;;;;0.10;0.10;;;5.90;99.90;;;;;;5040848;28;20663;-70
2022/11/30 06:25:23;;;;;;;0.10;0.10;;;5.90;99.90;;;;;;5038742;28;20659;-70
2022/11/30 06:27:52;;;;;;;0.10;0.10;;;5.90;99.90;;;;;;5026468;28;20630;-70
2022/11/30 06:30:19;;;;;;;0.00;0.00;;;5.90;99.90;;;;;;5022341;28;20631;-69
2022/11/30 06:32:48;;;;;;;0.10;0.10;;;5.90;99.90;;;;;;5027176;28;20602;-69
2022/11/30 06:35:16;;;;;;;0.10;0.10;;;5.80;99.90;;;;;;5035496;28;20630;-70
2022/11/30 06:37:43;;;;;;;0.10;0.10;;;5.80;99.90;;;;;;5027102;28;20642;-70
2022/11/30 06:40:12;;;;;;;0.10;0.10;;;5.80;99.90;;;;;;5042651;28;20627;-69
2022/11/30 06:42:39;;;;;;;0.10;0.10;;;5.80;99.90;;;;;;5026523;28;20607;-69
2022/11/30 06:45:09;;;;;;;0.10;0.10;;;5.80;99.90;;;;;;5042572;28;20664;-69
2022/11/30 06:47:36;;;;;;;0.10;0.10;;;5.80;99.90;;;;;;5025470;28;20618;-70
2022/11/30 06:50:05;;;;;;;0.10;0.10;;;5.80;99.90;;;;;;5043718;28;20623;-70
2022/11/30 06:52:32;;;;;;;0.10;0.10;;;5.80;99.90;;;;;;5027297;28;20622;-69
2022/11/30 06:54:59;;;;;;;0.00;0.00;;;5.80;99.90;;;;;;5031690;28;20631;-69
2022/11/30 06:57:27;;;;;;;0.10;0.10;;;5.80;99.90;;;;;;5030488;28;20749;-69
2022/11/30 06:59:57;;;;;;;0.10;0.10;;;5.80;99.90;;;;;;5037375;28;20623;-70
2022/11/30 07:02:25;;;;;;;0.10;0.10;;;5.80;99.90;;;;;;5017959;28;20737;-70
2022/11/30 07:04:52;;;;;;;0.10;0.10;;;5.80;99.90;;;;;;5014182;28;20662;-70
2022/11/30 07:07:19;;;;;;;0.00;0.00;;;5.80;99.90;;;;;;5040727;28;20678;-69
2022/11/30 07:09:46;;;;;;;0.10;0.10;;;5.80;99.90;;;;;;5036341;28;20618;-71
2022/11/30 07:12:13;;;;;;;0.10;0.10;;;5.80;99.90;;;;;;5041372;28;20615;-70
2022/11/30 07:14:41;;;;;;;0.10;0.10;;;5.80;99.90;;;;;;5027548;28;20615;-70
2022/11/30 07:17:08;;;;;;;0.10;0.10;;;5.70;99.90;;;;;;5026140;28;20642;-70
2022/11/30 07:19:36;;;;;;;0.10;0.10;;;5.70;99.90;;;;;;5025494;28;20630;-70
2022/11/30 07:22:03;;;;;;;0.10;0.10;;;5.70;99.90;;;;;;5027485;28;20646;-71
2022/11/30 07:27:15;;;;;;;0.10;0.10;;;5.70;99.90;;;;;;5041589;28;20712;-71
2022/11/30 07:29:42;;;;;;;0.10;0.10;;;5.70;99.90;;;;;;5027457;28;20765;-69
2022/11/30 07:32:10;;;;;;;0.00;0.00;;;5.70;99.90;;;;;;5038132;28;20627;-70
2022/11/30 07:34:38;;;;;;;0.10;0.10;;;5.60;99.90;;;;;;5028734;28;20651;-69
2022/11/30 07:37:05;;;;;;;0.00;0.00;;;5.60;99.90;;;;;;5041798;28;20756;-69
2022/11/30 07:39:33;;;;;;;0.00;0.00;;;5.60;99.90;;;;;;5041812;28;21022;-70
2022/11/30 07:42:00;;;;;;;0.10;0.10;;;5.70;99.90;;;;;;5040541;28;20626;-70
2022/11/30 07:44:28;;;;;;;0.10;0.10;;;5.60;99.90;;;;;;5033113;28;20622;-71
2022/11/30 07:46:55;;;;;;;0.10;0.10;;;5.60;99.90;;;;;;5041726;28;20665;-69
2022/11/30 07:49:22;;;;;;;0.07;0.07;;;5.60;99.90;;;;;;5026630;28;20674;-70
2022/11/30 07:51:51;;;;;;;0.10;0.10;;;5.60;99.90;;;;;;5025869;28;20745;-71
2022/11/30 07:54:18;;;;;;;0.10;0.10;;;5.60;99.90;;;;;;5037703;28;20627;-70
2022/11/30 07:56:45;;;;;;;0.10;0.10;;;5.60;99.90;;;;;;5043583;28;20659;-69
2022/11/30 07:59:12;;;;;;;0.10;0.10;;;5.60;99.90;;;;;;5026544;28;20676;-70
2022/11/30 08:01:39;;;;;;;0.10;0.10;;;5.60;99.90;;;;;;5028491;28;20623;-69
2022/11/30 08:04:07;;;;;;;0.10;0.10;;;5.50;99.90;;;;;;5025291;28;20622;-69
2022/11/30 08:06:34;;;;;;;0.10;0.10;;;5.60;99.90;;;;;;5025626;28;20673;-69
2022/11/30 08:09:04;;;;;;;0.10;0.10;;;5.60;99.90;;;;;;5024558;28;20631;-69
2022/11/30 08:11:33;;;;;;;0.10;0.10;;;5.60;99.90;;;;;;5028883;28;21218;-70
2022/11/30 08:14:01;;;;;;;0.00;0.00;;;5.60;99.90;;;;;;5036856;28;20854;-69
2022/11/30 08:16:30;;;;;;;0.00;0.00;;;5.60;99.90;;;;;;5026010;28;20637;-69
2022/11/30 08:18:58;;;;;;;0.10;0.10;;;5.60;99.90;;;;;;5036874;28;20646;-70
2022/11/30 08:21:25;;;;;;;0.10;0.10;;;5.60;99.90;;;;;;5021406;28;20603;-69
2022/11/30 08:23:55;;;;;;;0.00;0.00;;;5.50;99.90;;;;;;5025435;28;20630;-71
2022/11/30 08:26:25;;;;;;;0.00;0.00;;;5.50;99.90;;;;;;5034168;28;20670;-69
2022/11/30 08:28:53;;;;;;;0.10;0.10;;;5.50;99.90;;;;;;5027715;28;20606;-71
2022/11/30 08:31:23;;;;;;;0.00;0.00;;;5.50;99.90;;;;;;5035265;28;20627;-70
2022/11/30 08:33:54;;;;;;;0.10;0.10;;;5.50;99.90;;;;;;5044938;28;20696;-70
2022/11/30 08:36:22;;;;;;;0.10;0.10;;;5.50;99.90;;;;;;5028626;28;20638;-70
2022/11/30 08:38:49;;;;;;;0.10;0.10;;;5.50;99.90;;;;;;5028824;28;20713;-71
2022/11/30 08:41:20;;;;;;;0.00;0.00;;;5.50;99.90;;;;;;5030207;28;20608;-68
2022/11/30 08:43:49;;;;;;;0.10;0.10;;;5.50;99.90;;;;;;5029912;28;20618;-70
2022/11/30 08:46:18;;;;;;;0.10;0.10;;;5.50;99.90;;;;;;5029400;28;20666;-71
2022/11/30 08:48:46;;;;;;;0.10;0.10;;;5.50;99.90;;;;;;5031235;28;20611;-69
2022/11/30 08:51:16;;;;;;;0.10;0.10;;;5.50;99.90;;;;;;5038877;28;20633;-69
2022/11/30 08:53:44;;;;;;;0.10;0.10;;;5.50;99.90;;;;;;5033526;28;20645;-68
2022/11/30 08:56:14;;;;;;;0.10;0.10;;;5.50;99.90;;;;;;5031675;28;20755;-69
2022/11/30 08:58:41;;;;;;;0.00;0.00;;;5.50;99.90;;;;;;5042929;28;20659;-69
2022/11/30 09:01:12;;;;;;;0.10;0.10;;;5.50;99.90;;;;;;5041367;28;20658;-69
2022/11/30 09:03:40;;;;;;;0.00;0.00;;;5.50;99.90;;;;;;5029947;28;20680;-70
2022/11/30 09:06:11;;;;;;;0.10;0.10;;;5.50;99.90;;;;;;5028801;28;20739;-68
2022/11/30 09:08:39;;;;;;;0.10;0.10;;;5.50;99.90;;;;;;5036601;28;20692;-69
2022/11/30 09:11:11;;;;;;;0.10;0.10;;;5.50;99.90;;;;;;5029034;28;20626;-69
2022/11/30 09:13:38;;;;;;;0.10;0.10;;;5.50;99.90;;;;;;5028851;28;20676;-71
2022/11/30 09:16:06;;;;;;;0.10;0.10;;;5.50;99.90;;;;;;5027635;28;20719;-69
2022/11/30 09:18:35;;;;;;;0.00;0.00;;;5.50;99.90;;;;;;5028786;28;20606;-69
2022/11/30 09:21:04;;;;;;;0.10;0.10;;;5.50;99.90;;;;;;5029153;28;20618;-69
2022/11/30 09:23:32;;;;;;;0.10;0.10;;;5.50;99.90;;;;;;5035207;28;20622;-69
2022/11/30 09:26:01;;;;;;;0.00;0.00;;;5.60;99.90;;;;;;5028727;28;20720;-70
2022/11/30 09:28:29;;;;;;;0.00;0.00;;;5.60;99.90;;;;;;5027193;28;20708;-70
2022/11/30 09:31:00;;;;;;;0.00;0.00;;;5.60;99.90;;;;;;5029082;28;20951;-69
2022/11/30 09:33:29;;;;;;;0.10;0.10;;;5.60;99.90;;;;;;5024798;28;20627;-70
2022/11/30 09:35:58;;;;;;;0.10;0.10;;;5.60;99.90;;;;;;5027372;28;20729;-70
2022/11/30 09:38:26;;;;;;;0.10;0.10;;;5.60;99.90;;;;;;5028732;28;20618;-70
2022/11/30 09:40:56;;;;;;;0.10;0.10;;;5.60;99.90;;;;;;5041931;28;20632;-70
2022/11/30 09:43:37;;;;;;;0.10;0.10;;;5.60;99.90;;;;;;5029020;28;20606;-70
2022/11/30 09:46:07;;;;;;;0.10;0.10;;;5.60;99.90;;;;;;5026007;28;20677;-70
2022/11/30 09:48:49;;;;;;;0.10;0.10;;;5.60;99.90;;;;;;5032776;28;20622;-69
2022/11/30 09:51:24;;;;;;;0.10;0.10;;;5.60;99.90;;;;;;5027007;28;20717;-70
2022/11/30 09:53:57;;;;;;;0.10;0.10;;;5.60;99.90;;;;;;5033225;28;21047;-70
2022/11/30 09:56:29;;;;;;;0.10;0.10;;;5.60;99.90;;;;;;5039484;28;20658;-70
2022/11/30 09:59:02;;;;;;;0.00;0.00;;;5.60;99.90;;;;;;5028501;28;20614;-69
2022/11/30 10:01:29;;;;;;;0.00;0.00;;;5.60;99.90;;;;;;5029912;28;20677;-70
2022/11/30 10:03:57;;;;;;;0.00;0.00;;;5.60;99.90;;;;;;5028430;28;20733;-70
2022/11/30 10:06:34;;;;;;;0.00;0.00;;;5.60;99.90;;;;;;5024264;28;20698;-69
2022/11/30 10:09:18;;;;;;;0.10;0.10;;;5.60;99.90;;;;;;5034762;28;20730;-69
2022/11/30 10:11:56;;;;;;;0.10;0.10;;;5.60;99.90;;;;;;5030585;28;20619;-70
2022/11/30 10:14:54;;;;;;;0.10;0.10;;;5.60;99.90;;;;;;5021352;28;20627;-69
2022/11/30 10:17:34;;;;;;;0.10;0.10;;;5.60;99.90;;;;;;5035235;28;20718;-69
2022/11/30 10:20:18;;;;;;;0.10;0.10;;;5.60;99.90;;;;;;5024951;28;20631;-69
2022/11/30 10:23:02;;;;;;;0.00;0.00;;;5.60;99.90;;;;;;5028384;28;20610;-70
2022/11/30 10:25:37;;;;;;;0.00;0.00;;;5.60;99.90;;;;;;5026094;28;20682;-70
2022/11/30 10:28:15;;;;;;;0.10;0.10;;;5.60;99.90;;;;;;5028270;28;20678;-69
2022/11/30 10:30:42;;;;;;;0.00;0.00;;;5.60;99.90;;;;;;5027754;28;20661;-69
2022/11/30 10:33:17;;;;;;;0.10;0.10;;;5.60;99.90;;;;;;5026291;28;20650;-68
2022/11/30 10:35:47;;;;;;;0.10;0.10;;;5.60;99.90;;;;;;5027830;28;20630;-70
2022/11/30 10:38:22;;;;;;;0.10;0.10;;;5.70;99.90;;;;;;5039765;28;20614;-69
2022/11/30 10:40:54;;;;;;;0.10;0.10;;;5.70;99.90;;;;;;5028144;28;20691;-69
2022/11/30 10:43:27;;;;;;;0.10;0.10;;;5.80;99.90;;;;;;5023447;28;20709;-69
2022/11/30 10:45:55;;;;;;;0.00;0.00;;;5.80;99.90;;;;;;5026467;28;20666;-69
2022/11/30 10:48:28;;;;;;;0.00;0.00;;;5.80;99.90;;;;;;5030795;28;20607;-69
2022/11/30 10:50:55;;;;;;;0.00;0.00;;;5.80;99.90;;;;;;5029007;28;20681;-69
2022/11/30 10:53:24;;;;;;;0.10;0.10;;;5.80;99.90;;;;;;5034941;28;20635;-69
2022/11/30 10:55:59;;;;;;;0.10;0.10;;;5.80;99.90;;;;;;5027063;28;20677;-69
2022/11/30 10:58:29;;;;;;;0.10;0.10;;;5.80;99.90;;;;;;5031810;28;20642;-68
2022/11/30 11:01:04;;;;;;;0.10;0.10;;;5.80;99.90;;;;;;5024201;28;20702;-69
2022/11/30 11:03:32;;;;;;;0.10;0.10;;;5.80;99.90;;;;;;5025506;28;20630;-69
2022/11/30 11:06:15;;;;;;;0.10;0.10;;;5.80;99.90;;;;;;5041733;28;20713;-70
2022/11/30 11:08:45;;;;;;;0.10;0.10;;;5.80;99.90;;;;;;5033763;28;20676;-70
2022/11/30 11:11:32;;;;;;;0.10;0.10;;;5.90;99.90;;;;;;5026807;28;20617;-70
2022/11/30 11:14:18;;;;;;;0.10;0.10;;;5.90;99.90;;;;;;5027610;28;20705;-68
2022/11/30 11:16:55;;;;;;;0.10;0.10;;;5.90;99.90;;;;;;5024777;28;20646;-72
2022/11/30 11:19:26;;;;;;;0.10;0.10;;;5.90;99.90;;;;;;5022823;28;20637;-70
2022/11/30 11:21:53;;;;;;;0.10;0.10;;;6.00;99.90;;;;;;5038277;28;20693;-69
2022/11/30 11:24:26;;;;;;;0.10;0.10;;;5.90;99.90;;;;;;5026882;28;20611;-69
2022/11/30 11:26:55;;;;;;;0.10;0.10;;;5.90;99.90;;;;;;5034191;28;20667;-68
2022/11/30 11:29:31;;;;;;;0.10;0.10;;;5.90;99.90;;;;;;5032710;28;20615;-70
2022/11/30 11:32:21;;;;;;;0.00;0.00;;;5.90;99.90;;;;;;5026760;28;20705;-70
2022/11/30 11:34:48;;;;;;;0.10;0.10;;;5.90;99.90;;;;;;5027182;28;20615;-69
2022/11/30 11:37:25;;;;;;;0.03;0.03;;;5.90;99.90;;;;;;5039638;28;21087;-71
2022/11/30 11:40:03;;;;;;;0.10;0.10;;;5.80;99.90;;;;;;5037791;28;20622;-68
2022/11/30 11:42:35;;;;;;;0.10;0.10;;;5.80;99.90;;;;;;5041272;28;20730;-70
2022/11/30 11:45:04;;;;;;;0.10;0.10;;;5.80;99.90;;;;;;5033335;28;20611;-70
2022/11/30 11:47:39;;;;;;;0.10;0.10;;;5.80;99.90;;;;;;5026783;28;20650;-70
2022/11/30 11:50:24;;;;;;;0.00;0.00;;;5.80;99.90;;;;;;5030801;28;20627;-70
2022/11/30 11:53:21;;;;;;;0.10;0.10;;;5.80;99.90;;;;;;5024371;28;20658;-70
2022/11/30 11:55:55;;;;;;;0.10;0.10;;;5.80;99.90;;;;;;5023742;28;21412;-67
2022/11/30 11:58:30;;;;;;;0.00;0.00;;;5.80;99.90;;;;;;5028642;28;21143;-68
2022/11/30 12:01:00;;;;;;;0.10;0.10;;;5.80;99.90;;;;;;5023485;28;20610;-69
2022/11/30 12:03:33;;;;;;;0.10;0.10;;;5.90;99.90;;;;;;5028942;28;20677;-69
2022/11/30 12:06:03;;;;;;;0.10;0.10;;;5.90;99.90;;;;;;5026619;28;20732;-69
2022/11/30 12:08:38;;;;;;;0.10;0.10;;;5.90;99.90;;;;;;5030801;28;20606;-69
2022/11/30 12:11:10;;;;;;;0.10;0.10;;;6.00;99.90;;;;;;5045156;28;20690;-68
2022/11/30 12:13:39;;;;;;;0.10;0.10;;;6.00;99.90;;;;;;5030969;28;20614;-69
2022/11/30 12:16:27;;;;;;;0.00;0.00;;;6.00;99.90;;;;;;5037224;28;20667;-70
2022/11/30 12:19:03;;;;;;;0.10;0.10;;;6.00;99.90;;;;;;5027462;28;20609;-69
2022/11/30 12:21:44;;;;;;;0.00;0.00;;;6.00;99.90;;;;;;5037889;28;20625;-70
2022/11/30 12:24:37;;;;;;;0.00;0.00;;;5.90;99.90;;;;;;5031524;28;20621;-70
2022/11/30 12:27:16;;;;;;;0.00;0.00;;;5.90;99.90;;;;;;5040254;28;20760;-70
2022/11/30 12:29:52;;;;;;;0.10;0.10;;;5.90;99.90;;;;;;5029269;28;20618;-69
2022/11/30 12:32:30;;;;;;;0.10;0.10;;;5.90;99.90;;;;;;5039785;28;20630;-69
2022/11/30 12:35:14;;;;;;;0.10;0.10;;;5.80;99.90;;;;;;5028799;28;20627;-71
2022/11/30 12:37:51;;;;;;;0.10;0.10;;;5.80;99.90;;;;;;5043596;28;20637;-70
2022/11/30 12:40:30;;;;;;;0.10;0.10;;;5.80;99.90;;;;;;5043448;28;20633;-70
2022/11/30 12:43:09;;;;;;;0.00;0.00;;;5.80;99.90;;;;;;5038037;28;20654;-70
2022/11/30 12:45:40;;;;;;;0.10;0.10;;;5.70;99.90;;;;;;5027067;28;20638;-69
2022/11/30 12:48:20;;;;;;;0.10;0.10;;;5.80;99.90;;;;;;5034087;28;20726;-70
2022/11/30 12:50:57;;;;;;;0.00;0.00;;;5.80;99.90;;;;;;5029615;28;20705;-70
2022/11/30 12:53:30;;;;;;;0.00;0.00;;;5.80;99.90;;;;;;5025834;28;20602;-70
2022/11/30 12:56:10;;;;;;;0.00;0.00;;;5.80;99.90;;;;;;5028647;28;20745;-69
2022/11/30 12:58:46;;;;;;;0.10;0.10;;;5.80;99.90;;;;;;5036783;28;20730;-69
2022/11/30 13:01:28;;;;;;;0.10;0.10;;;5.80;99.90;;;;;;5044206;28;20626;-69
2022/11/30 13:04:03;;;;;;;0.10;0.10;;;5.70;99.90;;;;;;5027906;28;20627;-71
2022/11/30 13:06:37;;;;;;;0.10;0.10;;;5.70;99.90;;;;;;5025197;28;20711;-69
2022/11/30 13:09:13;;;;;;;0.00;0.00;;;5.70;99.90;;;;;;5031776;28;21235;-69
2022/11/30 13:11:45;;;;;;;0.10;0.10;;;5.80;99.90;;;;;;5036619;28;21051;-69
2022/11/30 13:14:17;;;;;;;0.00;0.00;;;5.80;99.90;;;;;;5027501;28;20631;-69
2022/11/30 13:16:46;;;;;;;0.10;0.10;;;5.80;99.90;;;;;;5036205;28;20650;-69